createdAt,value
2018-10-01T00:02:02.898Z,2.63
2018-10-01T00:04:31.230Z,3.07
2018-10-01T00:06:59.570Z,3.40
2018-10-01T00:09:27.903Z,3.40
2018-10-01T00:11:56.261Z,3.60
2018-10-01T00:14:24.578Z,3.30
2018-10-01T00:16:52.935Z,3.70
2018-10-01T00:19:26.666Z,3.37
2018-10-01T00:22:00.458Z,3.50
2018-10-01T00:24:28.779Z,3.73
2018-10-01T00:26:57.115Z,3.77
2018-10-01T00:29:25.435Z,3.83
2018-10-01T00:31:53.759Z,3.50
2018-10-01T00:34:22.101Z,3.37
2018-10-01T00:36:50.445Z,3.67
2018-10-01T00:39:18.783Z,3.33
2018-10-01T00:41:47.106Z,3.07
2018-10-01T00:44:15.458Z,3.50
2018-10-01T00:46:43.790Z,3.33
2018-10-01T00:49:12.124Z,3.20
2018-10-01T00:51:40.461Z,3.40
2018-10-01T00:54:08.826Z,2.90
2018-10-01T00:56:37.172Z,3.63
2018-10-01T00:59:05.522Z,3.23
2018-10-01T01:01:33.849Z,3.97
2018-10-01T01:04:02.186Z,3.80
2018-10-01T01:06:30.515Z,3.30
2018-10-01T01:08:58.861Z,4.10
2018-10-01T01:11:27.178Z,3.70
2018-10-01T01:13:55.518Z,4.30
2018-10-01T01:16:23.871Z,4.17
2018-10-01T01:18:52.439Z,3.87
2018-10-01T01:21:20.777Z,4.30
2018-10-01T01:23:49.144Z,4.13
2018-10-01T01:26:17.495Z,3.90
2018-10-01T01:28:45.886Z,3.80
2018-10-01T01:31:14.252Z,3.77
2018-10-01T01:33:42.594Z,4.17
2018-10-01T01:36:10.958Z,4.37
2018-10-01T01:38:39.326Z,4.50
2018-10-01T01:41:07.689Z,4.57
2018-10-01T01:43:36.049Z,5.37
2018-10-01T01:46:04.418Z,5.80
2018-10-01T01:48:32.815Z,6.17
2018-10-01T01:51:01.174Z,6.47
2018-10-01T01:53:29.663Z,5.73
2018-10-01T01:55:57.998Z,5.00
2018-10-01T01:58:26.356Z,5.13
2018-10-01T02:00:54.695Z,5.73
2018-10-01T02:03:23.061Z,5.83
2018-10-01T02:05:51.453Z,5.43
2018-10-01T02:08:19.808Z,6.33
2018-10-01T02:10:48.142Z,5.47
2018-10-01T02:13:16.507Z,6.17
2018-10-01T02:15:44.858Z,5.83
2018-10-01T02:18:13.201Z,6.13
2018-10-01T02:20:41.588Z,6.57
2018-10-01T02:23:09.954Z,6.87
2018-10-01T02:25:38.298Z,6.30
2018-10-01T02:28:07.010Z,7.13
2018-10-01T02:30:35.350Z,7.13
2018-10-01T02:33:03.743Z,7.13
2018-10-01T02:35:32.083Z,8.57
2018-10-01T02:38:00.449Z,8.07
2018-10-01T02:40:28.913Z,7.80
2018-10-01T02:42:57.298Z,8.97
2018-10-01T02:45:25.662Z,9.23
2018-10-01T02:47:54.130Z,8.33
2018-10-01T02:50:22.394Z,8.17
2018-10-01T02:52:56.195Z,8.53
2018-10-01T02:55:24.550Z,8.47
2018-10-01T02:57:52.918Z,8.43
2018-10-01T03:00:21.267Z,7.77
2018-10-01T03:02:49.612Z,7.80
2018-10-01T03:05:17.987Z,8.43
2018-10-01T03:07:46.351Z,9.13
2018-10-01T03:10:14.749Z,8.50
2018-10-01T03:12:43.122Z,9.43
2018-10-01T03:15:11.497Z,8.77
2018-10-01T03:17:39.858Z,9.00
2018-10-01T03:20:08.567Z,9.90
2018-10-01T03:22:36.924Z,9.90
2018-10-01T03:25:05.352Z,9.60
2018-10-01T03:27:33.704Z,10.40
2018-10-01T03:30:02.112Z,10.53
2018-10-01T03:32:30.740Z,11.63
2018-10-01T03:34:59.126Z,11.23
2018-10-01T03:37:27.487Z,12.17
2018-10-01T03:39:55.891Z,11.67
2018-10-01T03:42:24.239Z,11.20
2018-10-01T03:44:52.621Z,12.10
2018-10-01T03:47:20.969Z,12.13
2018-10-01T03:49:49.342Z,10.87
2018-10-01T03:52:17.689Z,11.60
2018-10-01T03:54:46.059Z,13.43
2018-10-01T03:57:14.402Z,12.23
2018-10-01T03:59:42.777Z,10.93
2018-10-01T04:02:11.118Z,12.73
2018-10-01T04:04:39.510Z,12.10
2018-10-01T04:07:07.874Z,11.90
2018-10-01T04:09:36.255Z,11.97
2018-10-01T04:12:04.614Z,12.47
2018-10-01T04:14:32.981Z,12.47
2018-10-01T04:17:01.337Z,12.63
2018-10-01T04:19:29.757Z,11.67
2018-10-01T04:21:58.146Z,11.93
2018-10-01T04:24:26.514Z,11.47
2018-10-01T04:26:54.903Z,12.93
2018-10-01T04:29:23.315Z,12.17
2018-10-01T04:31:51.661Z,11.77
2018-10-01T04:34:20.029Z,12.17
2018-10-01T04:36:48.418Z,12.50
2018-10-01T04:39:16.787Z,12.50
2018-10-01T04:41:45.144Z,12.00
2018-10-01T04:44:13.522Z,11.43
2018-10-01T04:46:41.972Z,12.40
2018-10-01T04:49:11.324Z,12.07
2018-10-01T04:51:40.811Z,11.83
2018-10-01T04:54:09.171Z,12.33
2018-10-01T04:56:37.539Z,11.70
2018-10-01T04:59:06.307Z,12.23
2018-10-01T05:01:34.682Z,13.37
2018-10-01T05:04:03.023Z,13.67
2018-10-01T05:06:31.390Z,14.33
2018-10-01T05:08:59.740Z,12.50
2018-10-01T05:11:28.122Z,15.13
2018-10-01T05:13:56.481Z,15.20
2018-10-01T05:16:24.891Z,13.97
2018-10-01T05:18:53.278Z,14.10
2018-10-01T05:21:21.730Z,14.47
2018-10-01T05:23:50.094Z,15.17
2018-10-01T05:26:18.466Z,14.97
2018-10-01T05:28:46.828Z,15.60
2018-10-01T05:31:15.242Z,15.83
2018-10-01T05:33:43.594Z,14.90
2018-10-01T05:36:11.965Z,16.13
2018-10-01T05:38:40.359Z,14.70
2018-10-01T05:41:08.806Z,16.20
2018-10-01T05:43:37.542Z,16.77
2018-10-01T05:46:06.062Z,17.47
2018-10-01T05:48:34.456Z,17.03
2018-10-01T05:51:02.830Z,17.10
2018-10-01T05:53:31.254Z,17.27
2018-10-01T05:55:59.648Z,18.13
2018-10-01T05:58:28.052Z,16.83
2018-10-01T06:00:56.457Z,16.67
2018-10-01T06:03:24.957Z,16.57
2018-10-01T06:05:53.484Z,16.57
2018-10-01T06:08:21.869Z,15.53
2018-10-01T06:10:50.280Z,15.20
2018-10-01T06:13:18.720Z,14.97
2018-10-01T06:15:47.186Z,14.33
2018-10-01T06:18:15.670Z,13.43
2018-10-01T06:20:44.075Z,13.33
2018-10-01T06:23:12.893Z,12.87
2018-10-01T06:25:41.361Z,12.60
2018-10-01T06:28:09.826Z,12.47
2018-10-01T06:30:38.254Z,12.10
2018-10-01T06:33:06.639Z,12.87
2018-10-01T06:35:35.223Z,11.73
2018-10-01T06:38:03.635Z,12.07
2018-10-01T06:40:32.071Z,11.47
2018-10-01T06:43:00.447Z,12.43
2018-10-01T06:45:28.902Z,11.67
2018-10-01T06:50:40.952Z,10.73
2018-10-01T06:53:09.706Z,11.97
2018-10-01T06:55:38.107Z,12.17
2018-10-01T06:58:06.563Z,10.93
2018-10-01T07:00:34.962Z,10.53
2018-10-01T07:03:03.359Z,10.03
2018-10-01T07:05:31.807Z,11.73
2018-10-01T07:08:00.148Z,10.50
2018-10-01T07:10:28.558Z,9.80
2018-10-01T07:12:56.943Z,10.27
2018-10-01T07:15:32.079Z,9.93
2018-10-01T07:18:00.462Z,10.93
2018-10-01T07:20:28.920Z,10.57
2018-10-01T07:22:57.356Z,11.23
2018-10-01T07:25:25.717Z,11.37
2018-10-01T07:27:54.142Z,11.20
2018-10-01T07:30:22.556Z,10.80
2018-10-01T07:32:50.964Z,11.40
2018-10-01T07:35:19.499Z,10.60
2018-10-01T07:37:48.168Z,9.37
2018-10-01T07:40:16.586Z,10.73
2018-10-01T07:42:45.098Z,9.50
2018-10-01T07:45:13.646Z,10.80
2018-10-01T07:47:42.007Z,9.90
2018-10-01T07:50:15.082Z,10.33
2018-10-01T07:52:44.607Z,10.10
2018-10-01T07:55:13.004Z,9.97
2018-10-01T07:57:41.382Z,8.93
2018-10-01T08:00:10.518Z,9.40
2018-10-01T08:02:39.063Z,9.00
2018-10-01T08:05:07.467Z,9.37
2018-10-01T08:07:41.521Z,9.20
2018-10-01T08:10:09.956Z,8.67
2018-10-01T08:12:38.352Z,9.17
2018-10-01T08:15:06.813Z,8.53
2018-10-01T08:17:35.214Z,9.37
2018-10-01T08:20:03.713Z,9.53
2018-10-01T08:22:32.060Z,9.33
2018-10-01T08:25:00.429Z,9.03
2018-10-01T08:27:28.894Z,9.40
2018-10-01T08:29:57.356Z,8.60
2018-10-01T08:32:25.756Z,8.07
2018-10-01T08:34:54.122Z,8.13
2018-10-01T08:37:22.602Z,7.33
2018-10-01T08:39:50.995Z,7.67
2018-10-01T08:42:19.395Z,7.13
2018-10-01T08:44:47.780Z,6.00
2018-10-01T08:47:16.297Z,6.97
2018-10-01T08:50:04.817Z,7.30
2018-10-01T08:52:41.014Z,7.40
2018-10-01T08:55:09.461Z,7.70
2018-10-01T08:57:37.868Z,6.60
2018-10-01T09:00:06.303Z,6.10
2018-10-01T09:02:34.726Z,6.10
2018-10-01T09:05:03.122Z,6.20
2018-10-01T09:07:31.501Z,5.90
2018-10-01T09:09:59.864Z,5.57
2018-10-01T09:12:28.265Z,5.47
2018-10-01T09:14:56.739Z,4.60
2018-10-01T09:17:25.105Z,4.97
2018-10-01T09:19:53.490Z,4.80
2018-10-01T09:22:21.900Z,4.87
2018-10-01T09:24:50.311Z,4.93
2018-10-01T09:27:18.762Z,4.93
2018-10-01T09:29:47.187Z,4.90
2018-10-01T09:32:15.693Z,3.90
2018-10-01T09:34:44.055Z,3.57
2018-10-01T09:37:12.453Z,4.70
2018-10-01T09:39:40.841Z,4.40
2018-10-01T09:42:09.297Z,5.00
2018-10-01T09:44:37.825Z,4.90
2018-10-01T09:47:06.203Z,5.10
2018-10-01T09:49:34.606Z,5.10
2018-10-01T09:52:03.044Z,6.50
2018-10-01T09:54:31.455Z,4.10
2018-10-01T09:56:59.871Z,3.80
2018-10-01T09:59:28.255Z,4.27
2018-10-01T10:01:56.672Z,3.50
2018-10-01T10:04:25.249Z,3.50
2018-10-01T10:06:53.653Z,3.13
2018-10-01T10:09:22.042Z,3.60
2018-10-01T10:11:50.437Z,3.33
2018-10-01T10:14:18.898Z,4.57
2018-10-01T10:16:47.342Z,3.10
2018-10-01T10:19:15.743Z,3.00
2018-10-01T10:21:44.142Z,11.67
2018-10-01T10:24:12.538Z,4.70
2018-10-01T10:26:40.943Z,8.67
2018-10-01T10:29:09.390Z,5.67
2018-10-01T10:31:37.750Z,6.70
2018-10-01T10:34:06.223Z,3.57
2018-10-01T10:36:34.627Z,3.60
2018-10-01T10:39:03.134Z,3.53
2018-10-01T10:41:31.628Z,3.30
2018-10-01T10:44:00.078Z,3.40
2018-10-01T10:46:28.467Z,3.90
2018-10-01T10:48:56.866Z,4.37
2018-10-01T10:51:25.208Z,5.40
2018-10-01T10:53:53.626Z,3.53
2018-10-01T10:56:22.159Z,3.83
2018-10-01T10:58:50.535Z,4.33
2018-10-01T11:01:18.938Z,3.67
2018-10-01T11:03:47.337Z,3.00
2018-10-01T11:06:16.139Z,3.13
2018-10-01T11:08:44.534Z,4.80
2018-10-01T11:11:12.892Z,3.77
2018-10-01T11:13:41.251Z,3.30
2018-10-01T11:16:09.623Z,3.63
2018-10-01T11:18:38.414Z,2.70
2018-10-01T11:21:07.459Z,3.37
2018-10-01T11:23:35.695Z,3.40
2018-10-01T11:26:04.209Z,3.20
2018-10-01T11:28:32.569Z,3.37
2018-10-01T11:31:01.135Z,2.70
2018-10-01T11:33:29.524Z,3.40
2018-10-01T11:35:57.935Z,3.23
2018-10-01T11:38:26.383Z,3.33
2018-10-01T11:40:54.799Z,2.70
2018-10-01T11:43:23.199Z,3.37
2018-10-01T11:45:51.662Z,2.70
2018-10-01T11:48:20.030Z,2.93
2018-10-01T11:50:48.434Z,3.00
2018-10-01T11:53:17.185Z,3.00
2018-10-01T11:55:45.567Z,2.70
2018-10-01T11:58:14.027Z,2.43
2018-10-01T12:00:42.473Z,2.30
2018-10-01T12:03:10.904Z,2.77
2018-10-01T12:05:39.251Z,2.93
2018-10-01T12:08:07.610Z,2.73
2018-10-01T12:10:36.025Z,2.70
2018-10-01T12:13:04.347Z,2.30
2018-10-01T12:15:32.844Z,2.20
2018-10-01T12:18:01.117Z,2.37
2018-10-01T12:20:29.510Z,1.93
2018-10-01T12:22:57.928Z,1.47
2018-10-01T12:25:26.302Z,2.00
2018-10-01T12:27:54.646Z,1.67
2018-10-01T12:30:23.027Z,1.23
2018-10-01T12:32:51.378Z,1.80
2018-10-01T12:35:19.811Z,1.50
2018-10-01T12:37:48.222Z,1.67
2018-10-01T12:40:16.618Z,1.70
2018-10-01T12:42:45.034Z,1.63
2018-10-01T12:45:13.424Z,1.80
2018-10-01T12:47:41.791Z,1.50
2018-10-01T12:50:10.191Z,1.57
2018-10-01T12:52:38.597Z,1.90
2018-10-01T12:55:07.019Z,1.40
2018-10-01T12:57:35.434Z,1.80
2018-10-01T13:00:03.883Z,1.00
2018-10-01T13:02:32.221Z,1.40
2018-10-01T13:05:00.624Z,1.50
2018-10-01T13:07:29.000Z,1.80
2018-10-01T13:09:57.370Z,1.60
2018-10-01T13:12:25.916Z,1.33
2018-10-01T13:14:54.327Z,1.23
2018-10-01T13:17:22.710Z,1.40
2018-10-01T13:19:51.128Z,1.10
2018-10-01T13:22:19.506Z,1.30
2018-10-01T13:24:48.030Z,1.20
2018-10-01T13:27:16.324Z,1.10
2018-10-01T13:29:44.728Z,0.93
2018-10-01T13:32:13.115Z,0.85
2018-10-01T13:34:41.646Z,1.00
2018-10-01T13:37:10.012Z,0.67
2018-10-01T13:39:38.470Z,0.95
2018-10-01T13:42:07.034Z,0.90
2018-10-01T13:44:35.411Z,1.02
2018-10-01T13:47:03.734Z,0.80
2018-10-01T13:49:32.106Z,0.72
2018-10-01T13:52:00.870Z,0.90
2018-10-01T13:54:29.214Z,1.00
2018-10-01T13:56:57.601Z,1.25
2018-10-01T13:59:26.333Z,1.40
2018-10-01T14:01:55.709Z,1.63
2018-10-01T14:04:24.181Z,2.07
2018-10-01T14:06:52.734Z,1.50
2018-10-01T14:09:21.093Z,3.57
2018-10-01T14:11:49.545Z,1.30
2018-10-01T14:14:18.055Z,3.57
2018-10-01T14:16:46.531Z,3.90
2018-10-01T14:19:15.020Z,1.47
2018-10-01T14:21:43.375Z,1.70
2018-10-01T14:24:11.775Z,1.17
2018-10-01T14:26:40.199Z,1.67
2018-10-01T14:29:08.638Z,1.60
2018-10-01T14:31:37.039Z,1.60
2018-10-01T14:34:05.444Z,1.70
2018-10-01T14:36:33.936Z,1.22
2018-10-01T14:39:02.451Z,2.12
2018-10-01T14:41:30.868Z,1.40
2018-10-01T14:43:59.215Z,1.45
2018-10-01T14:46:27.590Z,7.78
2018-10-01T14:48:55.974Z,1.20
2018-10-01T14:51:24.371Z,1.02
2018-10-01T14:53:52.785Z,1.50
2018-10-01T14:56:21.183Z,1.92
2018-10-01T14:58:49.540Z,1.50
2018-10-01T15:01:17.920Z,1.65
2018-10-01T15:03:46.382Z,1.02
2018-10-01T15:06:14.855Z,1.20
2018-10-01T15:08:43.295Z,2.23
2018-10-01T15:11:11.695Z,1.95
2018-10-01T15:13:40.054Z,2.08
2018-10-01T15:16:08.595Z,1.50
2018-10-01T15:18:37.113Z,1.03
2018-10-01T15:21:05.512Z,1.60
2018-10-01T15:23:33.870Z,1.40
2018-10-01T15:26:02.311Z,1.60
2018-10-01T15:28:30.707Z,1.40
2018-10-01T15:30:59.090Z,1.30
2018-10-01T15:33:27.454Z,1.90
2018-10-01T15:35:55.865Z,1.30
2018-10-01T15:38:24.581Z,1.60
2018-10-01T15:40:52.978Z,1.43
2018-10-01T15:43:21.376Z,1.67
2018-10-01T15:45:49.734Z,1.53
2018-10-01T15:48:18.142Z,1.33
2018-10-01T15:50:46.523Z,1.20
2018-10-01T15:53:15.051Z,0.57
2018-10-01T15:55:43.499Z,1.73
2018-10-01T15:58:11.914Z,1.17
2018-10-01T16:00:40.320Z,1.50
2018-10-01T16:03:08.835Z,1.30
2018-10-01T16:05:37.220Z,1.20
2018-10-01T16:08:06.044Z,1.10
2018-10-01T16:10:34.432Z,4.30
2018-10-01T16:13:02.931Z,2.83
2018-10-01T16:15:31.314Z,3.57
2018-10-01T16:17:59.741Z,1.77
2018-10-01T16:20:28.124Z,1.80
2018-10-01T16:22:56.536Z,1.50
2018-10-01T16:25:24.967Z,1.87
2018-10-01T16:27:53.280Z,1.43
2018-10-01T16:30:21.678Z,1.77
2018-10-01T16:32:50.123Z,2.53
2018-10-01T16:35:18.510Z,1.40
2018-10-01T16:37:46.928Z,1.70
2018-10-01T16:40:15.389Z,1.53
2018-10-01T16:42:43.872Z,1.80
2018-10-01T16:45:12.281Z,1.60
2018-10-01T16:47:40.738Z,1.53
2018-10-01T16:50:09.156Z,1.03
2018-10-01T16:52:37.524Z,1.37
2018-10-01T16:55:06.272Z,1.47
2018-10-01T16:57:34.711Z,1.30
2018-10-01T17:00:03.054Z,1.70
2018-10-01T17:02:31.404Z,1.70
2018-10-01T17:04:59.915Z,1.87
2018-10-01T17:07:28.287Z,1.70
2018-10-01T17:09:56.644Z,1.60
2018-10-01T17:12:25.058Z,2.10
2018-10-01T17:14:53.428Z,1.50
2018-10-01T17:17:21.887Z,1.60
2018-10-01T17:19:50.278Z,1.50
2018-10-01T17:22:18.644Z,1.30
2018-10-01T17:24:47.075Z,1.50
2018-10-01T17:27:15.478Z,1.60
2018-10-01T17:29:43.848Z,1.40
2018-10-01T17:32:12.371Z,1.57
2018-10-01T17:34:40.749Z,1.30
2018-10-01T17:37:09.122Z,1.50
2018-10-01T17:39:37.480Z,1.73
2018-10-01T17:42:05.842Z,1.50
2018-10-01T17:44:34.200Z,1.87
2018-10-01T17:47:02.541Z,1.70
2018-10-01T17:49:30.927Z,1.30
2018-10-01T17:51:59.322Z,2.87
2018-10-01T17:54:27.740Z,2.00
2018-10-01T17:56:56.083Z,1.57
2018-10-01T17:59:24.486Z,1.97
2018-10-01T18:01:52.884Z,2.43
2018-10-01T18:04:21.362Z,2.40
2018-10-01T18:06:49.763Z,2.10
2018-10-01T18:09:18.222Z,3.20
2018-10-01T18:11:46.666Z,5.33
2018-10-01T18:14:15.046Z,1.50
2018-10-01T18:16:43.411Z,1.90
2018-10-01T18:19:11.863Z,1.87
2018-10-01T18:21:40.381Z,1.77
2018-10-01T18:24:08.798Z,1.63
2018-10-01T18:26:37.249Z,2.47
2018-10-01T18:29:05.686Z,1.77
2018-10-01T18:31:34.486Z,1.60
2018-10-01T18:34:03.019Z,1.97
2018-10-01T18:36:31.439Z,1.90
2018-10-01T18:38:59.855Z,1.60
2018-10-01T18:41:28.253Z,1.30
2018-10-01T18:43:56.638Z,2.43
2018-10-01T18:46:25.043Z,2.10
2018-10-01T18:48:53.410Z,2.20
2018-10-01T18:51:21.778Z,1.77
2018-10-01T18:53:50.189Z,2.00
2018-10-01T18:56:18.489Z,2.03
2018-10-01T18:58:46.831Z,1.90
2018-10-01T19:01:15.199Z,1.83
2018-10-01T19:03:43.569Z,1.60
2018-10-01T19:06:11.939Z,2.40
2018-10-01T19:08:40.305Z,1.90
2018-10-01T19:11:08.739Z,3.53
2018-10-01T19:13:37.100Z,2.50
2018-10-01T19:16:05.472Z,2.00
2018-10-01T19:18:33.837Z,2.33
2018-10-01T19:21:02.621Z,2.67
2018-10-01T19:23:31.015Z,13.27
2018-10-01T19:25:59.400Z,4.70
2018-10-01T19:28:27.739Z,3.33
2018-10-01T19:30:56.140Z,3.97
2018-10-01T19:33:24.499Z,6.60
2018-10-01T19:35:53.119Z,4.47
2018-10-01T19:38:21.512Z,6.80
2018-10-01T19:40:49.927Z,4.97
2018-10-01T19:43:18.371Z,5.83
2018-10-01T19:45:46.700Z,12.73
2018-10-01T19:48:15.071Z,3.40
2018-10-01T19:50:43.452Z,3.37
2018-10-01T19:53:11.910Z,3.00
2018-10-01T19:55:40.332Z,2.80
2018-10-01T19:58:08.690Z,3.03
2018-10-01T20:00:37.134Z,3.00
2018-10-01T20:03:05.492Z,3.30
2018-10-01T20:05:33.891Z,2.50
2018-10-01T20:08:02.230Z,7.47
2018-10-01T20:10:30.620Z,4.93
2018-10-01T20:12:59.023Z,3.83
2018-10-01T20:15:27.491Z,3.23
2018-10-01T20:17:55.776Z,2.20
2018-10-01T20:20:24.155Z,1.80
2018-10-01T20:22:52.517Z,2.27
2018-10-01T20:25:20.870Z,2.43
2018-10-01T20:27:49.478Z,2.70
2018-10-01T20:30:17.703Z,2.47
2018-10-01T20:32:45.991Z,1.67
2018-10-01T20:35:14.377Z,2.40
2018-10-01T20:37:42.800Z,2.33
2018-10-01T20:40:11.130Z,2.77
2018-10-01T20:42:39.475Z,2.67
2018-10-01T20:45:08.194Z,2.60
2018-10-01T20:47:36.606Z,3.17
2018-10-01T20:50:05.169Z,2.17
2018-10-01T20:52:33.514Z,2.47
2018-10-01T20:55:01.891Z,2.83
2018-10-01T20:57:30.271Z,3.23
2018-10-01T20:59:58.642Z,5.03
2018-10-01T21:02:27.145Z,2.70
2018-10-01T21:04:55.471Z,2.20
2018-10-01T21:07:23.867Z,2.10
2018-10-01T21:09:52.247Z,2.33
2018-10-01T21:12:20.587Z,1.80
2018-10-01T21:14:49.002Z,2.00
2018-10-01T21:17:18.060Z,2.50
2018-10-01T21:19:46.443Z,1.87
2018-10-01T21:22:14.886Z,2.53
2018-10-01T21:24:43.207Z,2.50
2018-10-01T21:27:11.615Z,1.90
2018-10-01T21:29:39.990Z,2.33
2018-10-01T21:32:08.363Z,2.30
2018-10-01T21:34:36.705Z,2.33
2018-10-01T21:37:05.152Z,1.87
2018-10-01T21:40:09.554Z,1.97
2018-10-01T21:42:37.909Z,3.00
2018-10-01T21:45:07.339Z,2.27
2018-10-01T21:47:35.722Z,2.10
2018-10-01T21:50:04.167Z,2.20
2018-10-01T21:52:32.680Z,2.03
2018-10-01T21:55:01.289Z,2.17
2018-10-01T21:57:29.698Z,2.37
2018-10-01T21:59:58.131Z,2.37
2018-10-01T22:02:26.499Z,2.60
2018-10-01T22:04:54.833Z,2.20
2018-10-01T22:07:23.212Z,2.13
2018-10-01T22:09:51.598Z,2.20
2018-10-01T22:12:19.974Z,2.40
2018-10-01T22:14:48.312Z,2.93
2018-10-01T22:17:16.662Z,2.77
2018-10-01T22:19:45.047Z,3.60
2018-10-01T22:22:13.452Z,2.93
2018-10-01T22:24:41.799Z,3.30
2018-10-01T22:27:10.154Z,2.73
2018-10-01T22:29:38.554Z,2.70
2018-10-01T22:32:06.930Z,2.30
2018-10-01T22:34:35.330Z,2.57
2018-10-01T22:37:03.759Z,2.60
2018-10-01T22:39:32.101Z,2.60
2018-10-01T22:42:00.494Z,2.70
2018-10-01T22:44:28.842Z,3.27
2018-10-01T22:46:57.208Z,3.47
2018-10-01T22:49:25.606Z,2.40
2018-10-01T22:51:53.962Z,2.30
2018-10-01T22:54:22.312Z,2.10
2018-10-01T22:56:50.675Z,2.17
2018-10-01T22:59:19.027Z,2.10
2018-10-01T23:01:47.390Z,2.60
2018-10-01T23:04:15.742Z,3.03
2018-10-01T23:06:44.093Z,3.23
2018-10-01T23:09:12.442Z,2.90
2018-10-01T23:11:40.797Z,3.00
2018-10-01T23:14:09.344Z,3.13
2018-10-01T23:16:37.713Z,3.10
2018-10-01T23:19:06.150Z,2.97
2018-10-01T23:21:34.499Z,3.23
2018-10-01T23:24:02.877Z,2.73
2018-10-01T23:26:31.267Z,3.30
2018-10-01T23:28:59.642Z,3.00
2018-10-01T23:31:27.978Z,3.20
2018-10-01T23:33:56.342Z,2.70
2018-10-01T23:36:24.690Z,3.13
2018-10-01T23:38:53.037Z,3.13
2018-10-01T23:41:21.369Z,3.20
2018-10-01T23:43:49.735Z,3.90
2018-10-01T23:46:18.094Z,4.00
2018-10-01T23:48:46.441Z,3.37
2018-10-01T23:51:14.782Z,3.30
2018-10-01T23:53:43.150Z,3.67
2018-10-01T23:56:11.580Z,2.20
2018-10-01T23:58:39.930Z,2.70
